Terminal Aerodrome Forecast
Issued by NWS

Home | Current Version | Previous Version | Text Only | Print | Product List | Glossary On
Versions: 1 2 3 4 5 6 7 8 9 10 11 12
000
FTUS46 KSEW 271800 AAA
TAFOLM
TAF AMD
KOLM 271801Z 2718/2818 24008KT 5SM -RA BR SCT005 BKN040
     FM271900 23010G16KT P6SM -SHRA SCT005 BKN020 BKN040
     FM281000 23007KT P6SM OVC020
      TEMPO 2812/2816 2SM BR OVC010=

USA.gov is the U.S. government's official web portal to all federal, state and local government web resources and services.